Stations météo

réclame
Mon MeteoGroup
Bramham, Grande-Bretagne (99077): Température de l'air & dewpoint: 18.11.2020 04:00:00 - 24.11.2020 04:00:00 (GMT)Bramham, Grande-Bretagne (99077): Vitesse du vent & gusts: 18.11.2020 04:00:00 - 24.11.2020 04:00:00 (GMT)Bramham, Grande-Bretagne (99077): Direction du vent: 18.11.2020 04:00:00 - 24.11.2020 04:00:00 (GMT)Bramham, Grande-Bretagne (99077): Quantités de précipitations: 18.11.2020 04:00:00 - 24.11.2020 04:00:00 (GMT)
Date & Time tt [°C] td [°C] ff [km/h] ff [knt] fx [km/h] fx [knt] dd rr [mm]
24.11.2020 04:00:00 - - - - - - - -
24.11.2020 03:00:00 10,9 7,7 16 9 - - S 0,0
24.11.2020 02:00:00 11,2 7,7 29 16 46 25 SSW 0,0
24.11.2020 01:00:00 11,2 7,8 28 15 - - SSW 0,0
24.11.2020 00:00:00 10,9 7,7 26 14 - - SSW 0,0
23.11.2020 23:00:00 10,5 7,3 22 12 - - S 0,0
23.11.2020 22:00:00 10,3 7,5 16 9 - - S 0,0
23.11.2020 21:00:00 10,3 7,4 28 15 - - SSW 0,0
23.11.2020 20:00:00 9,0 6,7 26 14 - - S 0,0
23.11.2020 19:00:00 8,7 6,3 31 17 - - S 0,0
23.11.2020 18:00:00 8,5 6,1 18 10 - - S 0,0
23.11.2020 17:00:00 8,6 5,5 16 9 - - S 0,0
23.11.2020 16:00:00 8,9 5,4 18 10 - - S 0,0
23.11.2020 15:00:00 8,0 5,0 21 11 - - SSE 0,0
23.11.2020 14:00:00 8,8 4,4 22 12 - - S 0,0
23.11.2020 13:00:00 7,8 4,5 18 10 - - S 0,0
23.11.2020 12:00:00 6,9 3,9 16 9 - - S 0,0
23.11.2020 11:00:00 6,6 3,7 16 9 - - S 0,0
23.11.2020 10:00:00 4,5 2,8 15 8 - - S 0,0
23.11.2020 09:00:00 4,0 2,3 13 7 - - SSW 0,0
23.11.2020 08:00:00 3,3 2,1 11 6 - - SSW 0,0
23.11.2020 07:00:00 3,0 2,0 15 8 - - SSW 0,0
23.11.2020 06:00:00 3,4 2,5 18 10 - - SW 0,0
23.11.2020 05:00:00 3,2 2,2 9 5 - - SSE 0,0
23.11.2020 04:00:00 3,3 2,5 9 5 - - SSW 0,0
23.11.2020 03:00:00 3,0 2,2 4 2 - - SSW 0,0
23.11.2020 02:00:00 2,1 1,0 8 4 - - S 0,0
23.11.2020 01:00:00 4,0 2,8 11 6 - - WSW 0,0
23.11.2020 00:00:00 3,6 2,4 8 4 - - WSW 0,0
22.11.2020 23:00:00 4,4 2,5 5 3 - - W 0,0
22.11.2020 22:00:00 4,4 2,8 13 7 - - SW 0,0
22.11.2020 21:00:00 5,0 2,4 11 6 - - SW 0,0
22.11.2020 20:00:00 4,9 2,6 13 7 - - SW 0,0
22.11.2020 19:00:00 4,4 2,6 11 6 - - SW 0,0
22.11.2020 18:00:00 5,8 2,7 13 7 - - WSW 0,0
22.11.2020 17:00:00 7,1 3,3 13 7 - - WSW 0,0
22.11.2020 16:00:00 7,1 2,9 13 7 - - WSW 0,0
22.11.2020 15:00:00 7,5 3,8 16 9 - - W 0,0
22.11.2020 14:00:00 8,5 4,0 16 9 - - W 0,0
22.11.2020 13:00:00 8,4 4,2 16 9 - - SW 0,0
22.11.2020 12:00:00 8,6 5,0 13 7 - - SW 0,0
22.11.2020 11:00:00 7,0 4,6 13 7 - - SSW 0,0
22.11.2020 10:00:00 6,3 3,7 15 8 - - SSW 0,0
22.11.2020 09:00:00 6,1 3,3 9 5 - - SW 0,0
22.11.2020 08:00:00 5,7 3,1 11 6 - - SSW 0,0
22.11.2020 07:00:00 6,1 3,2 13 7 - - SSW 0,0
22.11.2020 06:00:00 6,2 2,8 8 4 - - SSW 0,0
22.11.2020 05:00:00 6,6 3,1 8 4 - - WSW 0,0
22.11.2020 04:00:00 5,9 2,9 9 5 - - ENE 0,0
22.11.2020 03:00:00 7,0 3,3 15 8 - - W 0,0
22.11.2020 02:00:00 7,8 3,7 15 8 - - WSW 0,0
22.11.2020 01:00:00 8,2 3,9 18 10 - - WSW 0,0
22.11.2020 00:00:00 9,1 4,3 24 13 - - WSW 0,0
21.11.2020 23:00:00 8,8 6,3 5 3 - - SW 0,0
21.11.2020 22:00:00 8,4 6,2 8 4 - - WSW 0,0
21.11.2020 21:00:00 8,4 6,8 11 6 - - SSW 0,0
21.11.2020 20:00:00 8,4 5,9 4 2 - - SE 0,0
21.11.2020 19:00:00 9,3 6,5 15 8 - - WSW 0,0
21.11.2020 18:00:00 9,2 6,2 11 6 - - WSW 0,0
21.11.2020 17:00:00 9,9 6,4 16 9 - - WSW 0,0
21.11.2020 16:00:00 10,8 7,7 13 7 - - W 0,0
21.11.2020 15:00:00 11,1 8,2 18 10 - - W 0,2
21.11.2020 14:00:00 11,4 10,1 16 9 - - SW 0,2
21.11.2020 13:00:00 11,3 9,8 21 11 - - SSW 0,0
21.11.2020 12:00:00 11,5 8,4 28 15 48 26 SSW 0,0
21.11.2020 11:00:00 11,6 7,5 31 17 50 27 SSW 0,0
21.11.2020 10:00:00 11,4 7,0 34 18 52 28 SSW 0,0
21.11.2020 09:00:00 11,3 7,0 37 20 55 30 SSW 0,0
21.11.2020 08:00:00 10,7 6,8 37 20 54 29 SW 0,0
21.11.2020 07:00:00 11,2 7,3 31 17 48 26 SW 0,0
21.11.2020 06:00:00 11,0 7,2 22 12 46 25 SW 0,0
21.11.2020 05:00:00 11,0 7,6 26 14 - - SW 0,0
21.11.2020 04:00:00 10,7 7,8 24 13 - - SW 0,0
21.11.2020 03:00:00 10,8 8,2 28 15 46 25 SW 0,0
21.11.2020 02:00:00 10,9 8,4 29 16 46 25 SW 0,0
21.11.2020 01:00:00 11,1 8,5 18 10 - - SSW 0,0
21.11.2020 00:00:00 10,9 8,5 28 15 - - SSW 0,0
20.11.2020 23:00:00 11,0 8,3 21 11 - - SSW 0,0
20.11.2020 22:00:00 10,9 8,4 21 11 - - SSW 0,0
20.11.2020 21:00:00 11,3 9,3 26 14 - - SSW 0,0
20.11.2020 20:00:00 11,3 10,0 16 9 - - S 0,0
20.11.2020 19:00:00 10,9 9,9 16 9 - - S 0,0
20.11.2020 18:00:00 10,1 9,5 16 9 - - S 0,0
20.11.2020 17:00:00 9,6 8,9 21 11 - - SSW 0,2
20.11.2020 16:00:00 8,8 8,1 18 10 - - SSE 0,4
20.11.2020 15:00:00 8,8 7,8 22 12 - - SSE 0,0
20.11.2020 14:00:00 7,8 6,9 11 6 - - SE 0,2
20.11.2020 13:00:00 7,3 6,1 13 7 - - SSE 0,0
20.11.2020 12:00:00 6,9 5,3 15 8 - - SSE 0,0
20.11.2020 11:00:00 6,0 4,6 18 10 - - SE 0,0
20.11.2020 10:00:00 4,4 3,5 18 10 - - SE 0,0
20.11.2020 09:00:00 3,8 2,7 16 9 - - SE 0,0
20.11.2020 08:00:00 3,6 2,3 13 7 - - SE 0,0
20.11.2020 07:00:00 4,0 1,8 13 7 - - SSE 0,0
20.11.2020 06:00:00 3,5 1,4 15 8 - - SSE 0,0
20.11.2020 05:00:00 3,1 1,5 15 8 - - S 0,0
20.11.2020 04:00:00 3,2 1,4 15 8 - - S 0,0
20.11.2020 03:00:00 3,4 1,8 15 8 - - S 0,0
20.11.2020 02:00:00 2,8 0,7 13 7 - - S 0,0
20.11.2020 01:00:00 3,0 0,1 9 5 - - SSW 0,0
20.11.2020 00:00:00 4,3 0,2 11 6 - - SSW 0,0
19.11.2020 23:00:00 4,2 -0,4 15 8 - - SSW 0,0
19.11.2020 22:00:00 3,6 -0,3 9 5 - - SSW 0,0
19.11.2020 21:00:00 3,5 -0,8 11 6 - - WSW 0,0
19.11.2020 20:00:00 2,8 -1,4 13 7 - - WSW 0,0
19.11.2020 19:00:00 2,3 -1,6 9 5 - - SW 0,0
19.11.2020 18:00:00 3,3 -2,1 8 4 - - WSW 0,0
19.11.2020 17:00:00 3,6 -2,0 11 6 - - SSW 0,0
19.11.2020 16:00:00 4,7 -2,3 13 7 - - WSW 0,0
19.11.2020 15:00:00 5,9 -1,9 16 9 - - WNW 0,0
19.11.2020 14:00:00 6,7 0,1 15 8 - - WNW 0,0
19.11.2020 13:00:00 6,8 0,1 22 12 - - W 0,0
19.11.2020 12:00:00 6,5 -0,1 21 11 - - NW 0,0
19.11.2020 11:00:00 6,4 0,6 21 11 - - NW 0,0
19.11.2020 10:00:00 5,7 1,0 18 10 - - NW 0,0
19.11.2020 09:00:00 5,4 1,1 28 15 46 25 NNW 0,0
19.11.2020 08:00:00 6,1 2,5 29 16 - - NNW 0,0
19.11.2020 07:00:00 6,8 4,2 21 11 - - NW 0,0
19.11.2020 06:00:00 6,9 4,7 24 13 - - NW 0,2
19.11.2020 05:00:00 7,9 5,6 16 9 - - WNW 0,0
19.11.2020 04:00:00 8,4 6,1 28 15 46 25 W 0,0
19.11.2020 03:00:00 8,6 5,6 24 13 - - W 0,0
19.11.2020 02:00:00 8,5 6,3 18 10 50 27 WSW 0,2
19.11.2020 01:00:00 8,0 6,0 37 20 52 28 SW 0,4
19.11.2020 00:00:00 7,6 4,7 37 20 52 28 SSW 0,0
18.11.2020 23:00:00 8,0 4,3 39 21 59 32 SSW 0,0
18.11.2020 22:00:00 8,2 3,8 22 12 - - SW 0,0
18.11.2020 21:00:00 8,1 3,5 24 13 48 26 SW 0,0
18.11.2020 20:00:00 8,4 3,3 31 17 46 25 SW 0,0
18.11.2020 19:00:00 8,6 3,1 22 12 50 27 SW 0,0
18.11.2020 18:00:00 8,8 3,5 28 15 55 30 SW 0,0
18.11.2020 17:00:00 9,6 5,0 31 17 50 27 WSW 0,0
18.11.2020 16:00:00 10,2 7,2 34 18 50 27 WSW 0,0
18.11.2020 15:00:00 10,7 8,8 21 11 59 32 WSW 0,4
18.11.2020 14:00:00 14,9 11,4 31 17 52 28 S 0,0
18.11.2020 13:00:00 14,9 11,3 29 16 52 28 S 0,0
18.11.2020 12:00:00 14,3 11,2 26 14 - - S 0,0
18.11.2020 11:00:00 13,6 10,8 28 15 52 28 S 0,0
18.11.2020 10:00:00 13,1 10,2 34 18 54 29 S 0,0
18.11.2020 09:00:00 13,2 9,6 42 23 57 31 S 0,0
18.11.2020 08:00:00 12,9 9,2 16 9 - - SSE 0,0
18.11.2020 07:00:00 12,1 9,0 22 12 - - SSE 0,0
18.11.2020 06:00:00 12,0 8,7 18 10 - - SSE 0,0
18.11.2020 05:00:00 12,1 8,5 18 10 - - S 0,0
18.11.2020 04:00:00 12,1 8,3 18 10 - - S 0,0

tt = Température de l'air
td = dewpoint
ff = Vitesse du vent
fx = gusts
dd = Direction du vent
rr = Quantités de précipitations

stations d'obs. à proximité